Sample Charts Sidebar
> Live data! Your data is on the web site for you to access within minutes
 
> Detailed data is easily downloaded as data file, which can be opened with Excel
 
> Charts can be customised if necessary
  Chart 1
 

(A maximum of 50 rows are displayed here. Use "Export Data" to see all rows in the date range.)
Date Collected Temperature
(Celcius)
Wind-chill
(Celcius)
Wind Speed
(km/hr)
Gust
(km/hr)
Wind Direction
(degrees)
2019-10-17 05:00 17.1 15.4 5 15 13
2019-10-17 04:00 17.5 16.6 4 11 19
2019-10-17 03:00 17.7 15.2 7 19 357
2019-10-17 02:00 17.8 16.3 5 12 14
2019-10-17 01:00 17.9 16.4 5 19 342
2019-10-17 00:00 18.3 17.6 4 8 24
2019-10-16 23:00 18.3 16.7 5 12 18
2019-10-16 22:00 18.5 15.8 7 19 10
2019-10-16 21:00 18.4 16.6 5 16 18
2019-10-16 20:00 18.5 15.8 7 19 347
2019-10-16 19:00 19.9 17.5 7 21 346
2019-10-16 18:00 20.0 16.6 9 19 347
2019-10-16 17:00 20.4 17.2 9 25 351
2019-10-16 16:00 20.7 18.5 7 21 5
2019-10-16 15:00 20.7 19.1 5 15 350
2019-10-16 14:00 20.4 16.5 10 28 348
2019-10-16 13:00 20.0 16.7 9 30 3
2019-10-16 12:00 19.9 16.8 8 23 6
2019-10-16 11:00 20.8 17.3 9 28 3
2019-10-16 10:00 20.5 17.4 8 21 13
2019-10-16 09:00 19.7 15.7 9 24 16
2019-10-16 08:00 18.9 14.9 9 23 25
2019-10-16 07:00 18.5 16.2 6 15 28
2019-10-16 06:00 18.4 15.4 7 20 28
2019-10-16 05:00 18.3 15.4 7 16 31
2019-10-16 04:00 18.3 13.8 10 22 19
2019-10-16 03:00 18.3 15.0 8 19 28
2019-10-16 02:00 18.5 15.1 8 22 13
2019-10-16 01:00 18.8 15.3 8 21 15
2019-10-16 00:00 18.8 15.4 8 22 355
2019-10-15 23:00 17.5 15.7 5 20 19
2019-10-15 22:00 17.7 15.6 6 13 20
2019-10-15 21:00 18.8 16.4 7 16 27
2019-10-15 20:00 18.8 15.7 8 20 353
2019-10-15 19:00 18.8 16.7 6 14 12
2019-10-15 18:00 18.8 15.4 8 23 6
2019-10-15 17:00 18.2 16.0 6 12 41
2019-10-15 16:00 17.8 17.8 2 5 17
2019-10-15 15:00 18.2 17.1 4 10 33
2019-10-15 14:00 18.2 17.5 3 11 331
2019-10-15 13:00 18.9 16.5 6 19 341
2019-10-15 12:00 19.4 16.6 7 15 2
2019-10-15 11:00 19.1 16.9 6 13 20
2019-10-15 10:00 19.4 16.6 7 16 24
2019-10-15 09:00 19.3 16.9 6 15 28
2019-10-15 08:00 18.7 16.6 6 15 24
2019-10-15 07:00 18.5 16.3 6 18 24
2019-10-15 06:00 18.4 16.9 5 11 30
2019-10-15 05:00 18.4 17.3 4 11 40
2019-10-15 04:00 18.4 17.1 5 11 35